Fibre, Michigan
Current Conditions -  °F | °C
As of 5:15 PM on Monday 20 Oct 2014 (Local Time) from KCIU Reporting Station
Overcast Overcast  
Wind Chill: 43°   Ceiling: 1000
Heat Index: 46°   Visibility: 10mi
Dew Point: 46°   Wind: 7mph
Humidity: 100%   Direction: 320°NW
Pressure: 29.81"   Gusts: NA
Location:  46.1892°N, 84.6083°W
Report Text: KCIU 202115Z AUTO 32006KT 10SM OVC010 08/08 A2981 RMK AO1
Loading
Personal Weather Stations






























Interactive Weather Map
Tropical Storm Tracking
New forecast layout! Learn more

10-Day Weather Forecast

Advertisements
Track Severe Weather on mobile